sensor_id;sensor_type;location;lat;lon;timestamp;P1;durP1;ratioP1;P2;durP2;ratioP2
17658;SDS011;8948;51.534;8.262;2023-02-15T00:03:27;18.53;;;8.23;;
17658;SDS011;8948;51.534;8.262;2023-02-15T00:08:28;17.70;;;7.77;;
17658;SDS011;8948;51.534;8.262;2023-02-15T00:13:28;16.70;;;7.70;;
17658;SDS011;8948;51.534;8.262;2023-02-15T00:18:29;15.93;;;7.57;;
17658;SDS011;8948;51.534;8.262;2023-02-15T00:23:30;13.70;;;7.30;;
17658;SDS011;8948;51.534;8.262;2023-02-15T00:28:31;15.97;;;8.03;;
17658;SDS011;8948;51.534;8.262;2023-02-15T00:33:31;13.97;;;7.10;;
17658;SDS011;8948;51.534;8.262;2023-02-15T00:38:32;13.57;;;7.37;;
17658;SDS011;8948;51.534;8.262;2023-02-15T00:43:34;12.83;;;7.10;;
17658;SDS011;8948;51.534;8.262;2023-02-15T00:48:35;14.50;;;8.40;;
17658;SDS011;8948;51.534;8.262;2023-02-15T00:53:36;16.10;;;8.00;;
17658;SDS011;8948;51.534;8.262;2023-02-15T00:58:36;17.17;;;9.23;;
17658;SDS011;8948;51.534;8.262;2023-02-15T01:03:37;15.20;;;7.60;;
17658;SDS011;8948;51.534;8.262;2023-02-15T01:08:39;19.37;;;9.63;;
17658;SDS011;8948;51.534;8.262;2023-02-15T01:13:39;16.57;;;8.20;;
17658;SDS011;8948;51.534;8.262;2023-02-15T01:18:41;16.53;;;7.90;;
17658;SDS011;8948;51.534;8.262;2023-02-15T01:23:41;20.07;;;9.30;;
17658;SDS011;8948;51.534;8.262;2023-02-15T01:28:42;18.93;;;9.70;;
17658;SDS011;8948;51.534;8.262;2023-02-15T01:33:43;21.40;;;10.23;;
17658;SDS011;8948;51.534;8.262;2023-02-15T01:38:45;18.17;;;9.07;;
17658;SDS011;8948;51.534;8.262;2023-02-15T01:43:46;18.27;;;8.93;;
17658;SDS011;8948;51.534;8.262;2023-02-15T01:48:51;19.87;;;9.10;;
17658;SDS011;8948;51.534;8.262;2023-02-15T01:53:59;18.20;;;8.93;;
17658;SDS011;8948;51.534;8.262;2023-02-15T01:59:27;15.57;;;7.87;;
17658;SDS011;8948;51.534;8.262;2023-02-15T02:04:30;18.83;;;8.40;;
17658;SDS011;8948;51.534;8.262;2023-02-15T02:09:41;13.80;;;7.40;;
17658;SDS011;8948;51.534;8.262;2023-02-15T02:14:41;12.47;;;6.90;;
17658;SDS011;8948;51.534;8.262;2023-02-15T02:20:07;14.00;;;7.40;;
17658;SDS011;8948;51.534;8.262;2023-02-15T02:30:55;14.13;;;7.20;;
17658;SDS011;8948;51.534;8.262;2023-02-15T02:41:32;15.87;;;8.23;;
17658;SDS011;8948;51.534;8.262;2023-02-15T02:51:57;16.63;;;7.43;;
17658;SDS011;8948;51.534;8.262;2023-02-15T02:57:03;14.20;;;7.60;;
17658;SDS011;8948;51.534;8.262;2023-02-15T03:02:10;16.73;;;7.73;;
17658;SDS011;8948;51.534;8.262;2023-02-15T03:07:19;15.23;;;7.60;;
17658;SDS011;8948;51.534;8.262;2023-02-15T03:12:27;15.43;;;8.00;;
17658;SDS011;8948;51.534;8.262;2023-02-15T03:17:32;17.13;;;8.07;;
17658;SDS011;8948;51.534;8.262;2023-02-15T03:22:38;14.07;;;7.77;;
17658;SDS011;8948;51.534;8.262;2023-02-15T03:27:45;15.03;;;7.80;;
17658;SDS011;8948;51.534;8.262;2023-02-15T03:32:49;14.63;;;7.80;;
17658;SDS011;8948;51.534;8.262;2023-02-15T03:37:57;19.43;;;8.57;;
17658;SDS011;8948;51.534;8.262;2023-02-15T03:43:02;16.80;;;8.00;;
17658;SDS011;8948;51.534;8.262;2023-02-15T03:48:10;18.13;;;7.97;;
17658;SDS011;8948;51.534;8.262;2023-02-15T03:53:11;15.70;;;8.23;;
17658;SDS011;8948;51.534;8.262;2023-02-15T03:58:15;16.77;;;8.63;;
17658;SDS011;8948;51.534;8.262;2023-02-15T04:03:39;16.60;;;8.50;;
17658;SDS011;8948;51.534;8.262;2023-02-15T04:08:43;19.53;;;9.17;;
17658;SDS011;8948;51.534;8.262;2023-02-15T04:14:02;18.33;;;9.40;;
17658;SDS011;8948;51.534;8.262;2023-02-15T04:19:23;17.97;;;9.13;;
17658;SDS011;8948;51.534;8.262;2023-02-15T04:24:42;21.77;;;10.43;;
17658;SDS011;8948;51.534;8.262;2023-02-15T04:30:01;16.83;;;8.97;;
17658;SDS011;8948;51.534;8.262;2023-02-15T04:35:02;17.50;;;9.13;;
17658;SDS011;8948;51.534;8.262;2023-02-15T04:40:04;22.53;;;10.23;;
17658;SDS011;8948;51.534;8.262;2023-02-15T04:45:05;19.17;;;9.63;;
17658;SDS011;8948;51.534;8.262;2023-02-15T04:50:06;22.40;;;9.17;;
17658;SDS011;8948;51.534;8.262;2023-02-15T04:55:07;19.20;;;7.00;;
17658;SDS011;8948;51.534;8.262;2023-02-15T05:00:08;17.97;;;8.80;;
17658;SDS011;8948;51.534;8.262;2023-02-15T05:05:09;14.33;;;7.50;;
17658;SDS011;8948;51.534;8.262;2023-02-15T05:10:12;14.27;;;7.67;;
17658;SDS011;8948;51.534;8.262;2023-02-15T05:15:13;13.13;;;7.23;;
17658;SDS011;8948;51.534;8.262;2023-02-15T05:20:13;13.50;;;6.90;;
17658;SDS011;8948;51.534;8.262;2023-02-15T05:25:14;15.13;;;8.13;;
17658;SDS011;8948;51.534;8.262;2023-02-15T05:30:33;22.67;;;9.03;;
17658;SDS011;8948;51.534;8.262;2023-02-15T05:35:34;17.07;;;8.60;;
17658;SDS011;8948;51.534;8.262;2023-02-15T05:40:34;17.30;;;8.83;;
17658;SDS011;8948;51.534;8.262;2023-02-15T05:45:35;20.17;;;9.47;;
17658;SDS011;8948;51.534;8.262;2023-02-15T05:50:35;18.37;;;8.80;;
17658;SDS011;8948;51.534;8.262;2023-02-15T05:55:39;17.10;;;8.70;;
17658;SDS011;8948;51.534;8.262;2023-02-15T06:00:40;16.57;;;9.07;;
17658;SDS011;8948;51.534;8.262;2023-02-15T06:05:41;17.80;;;8.93;;
17658;SDS011;8948;51.534;8.262;2023-02-15T06:10:42;21.57;;;9.30;;
17658;SDS011;8948;51.534;8.262;2023-02-15T06:15:42;20.67;;;9.57;;
17658;SDS011;8948;51.534;8.262;2023-02-15T06:20:45;18.03;;;9.10;;
17658;SDS011;8948;51.534;8.262;2023-02-15T06:25:46;20.47;;;9.00;;
17658;SDS011;8948;51.534;8.262;2023-02-15T06:30:47;19.97;;;10.53;;
17658;SDS011;8948;51.534;8.262;2023-02-15T06:35:47;24.77;;;9.47;;
17658;SDS011;8948;51.534;8.262;2023-02-15T06:40:48;28.53;;;11.10;;
17658;SDS011;8948;51.534;8.262;2023-02-15T06:45:48;25.77;;;9.00;;
17658;SDS011;8948;51.534;8.262;2023-02-15T06:50:49;20.77;;;9.73;;
17658;SDS011;8948;51.534;8.262;2023-02-15T06:55:49;18.83;;;9.07;;
17658;SDS011;8948;51.534;8.262;2023-02-15T07:00:51;18.87;;;9.57;;
17658;SDS011;8948;51.534;8.262;2023-02-15T07:05:55;17.07;;;8.27;;
17658;SDS011;8948;51.534;8.262;2023-02-15T07:10:57;21.07;;;8.97;;
17658;SDS011;8948;51.534;8.262;2023-02-15T07:16:18;17.93;;;8.77;;
17658;SDS011;8948;51.534;8.262;2023-02-15T07:21:19;17.67;;;8.57;;
17658;SDS011;8948;51.534;8.262;2023-02-15T07:26:19;16.43;;;8.60;;
17658;SDS011;8948;51.534;8.262;2023-02-15T07:31:20;18.80;;;9.00;;
17658;SDS011;8948;51.534;8.262;2023-02-15T07:36:20;18.30;;;8.30;;
17658;SDS011;8948;51.534;8.262;2023-02-15T07:41:21;15.93;;;8.33;;
17658;SDS011;8948;51.534;8.262;2023-02-15T07:46:23;18.60;;;8.50;;
17658;SDS011;8948;51.534;8.262;2023-02-15T07:51:24;16.73;;;7.83;;
17658;SDS011;8948;51.534;8.262;2023-02-15T07:56:24;16.37;;;8.43;;
17658;SDS011;8948;51.534;8.262;2023-02-15T08:01:26;19.40;;;8.20;;
17658;SDS011;8948;51.534;8.262;2023-02-15T08:06:30;17.17;;;8.60;;
17658;SDS011;8948;51.534;8.262;2023-02-15T08:11:35;17.40;;;8.80;;
17658;SDS011;8948;51.534;8.262;2023-02-15T08:16:46;15.13;;;7.60;;
17658;SDS011;8948;51.534;8.262;2023-02-15T08:21:49;18.10;;;8.90;;
17658;SDS011;8948;51.534;8.262;2023-02-15T08:26:50;18.30;;;8.47;;
17658;SDS011;8948;51.534;8.262;2023-02-15T08:31:58;18.47;;;8.47;;
17658;SDS011;8948;51.534;8.262;2023-02-15T08:37:04;22.63;;;8.77;;
17658;SDS011;8948;51.534;8.262;2023-02-15T08:42:05;19.90;;;8.60;;
17658;SDS011;8948;51.534;8.262;2023-02-15T08:47:06;21.20;;;9.20;;
17658;SDS011;8948;51.534;8.262;2023-02-15T08:52:07;17.17;;;8.57;;
17658;SDS011;8948;51.534;8.262;2023-02-15T08:57:07;17.37;;;8.67;;
17658;SDS011;8948;51.534;8.262;2023-02-15T09:02:09;16.13;;;8.20;;
17658;SDS011;8948;51.534;8.262;2023-02-15T09:07:10;18.07;;;8.80;;
17658;SDS011;8948;51.534;8.262;2023-02-15T09:12:10;17.43;;;8.97;;
17658;SDS011;8948;51.534;8.262;2023-02-15T09:17:11;17.23;;;8.73;;
17658;SDS011;8948;51.534;8.262;2023-02-15T09:22:11;17.93;;;8.83;;
17658;SDS011;8948;51.534;8.262;2023-02-15T09:27:12;18.70;;;9.93;;
17658;SDS011;8948;51.534;8.262;2023-02-15T09:32:15;17.63;;;8.93;;
17658;SDS011;8948;51.534;8.262;2023-02-15T09:37:17;19.30;;;10.10;;
17658;SDS011;8948;51.534;8.262;2023-02-15T09:42:40;20.57;;;9.17;;
17658;SDS011;8948;51.534;8.262;2023-02-15T10:04:24;17.77;;;9.57;;
17658;SDS011;8948;51.534;8.262;2023-02-15T10:20:20;14.00;;;7.53;;
17658;SDS011;8948;51.534;8.262;2023-02-15T10:35:59;15.17;;;7.83;;
17658;SDS011;8948;51.534;8.262;2023-02-15T10:41:09;12.70;;;7.00;;
17658;SDS011;8948;51.534;8.262;2023-02-15T10:51:52;14.03;;;6.83;;
17658;SDS011;8948;51.534;8.262;2023-02-15T10:57:04;15.20;;;6.78;;
17658;SDS011;8948;51.534;8.262;2023-02-15T11:07:19;14.13;;;6.60;;
17658;SDS011;8948;51.534;8.262;2023-02-15T11:12:22;16.70;;;6.38;;
17658;SDS011;8948;51.534;8.262;2023-02-15T11:17:33;12.02;;;6.25;;
17658;SDS011;8948;51.534;8.262;2023-02-15T11:22:41;20.10;;;5.93;;
17658;SDS011;8948;51.534;8.262;2023-02-15T11:27:42;11.27;;;5.32;;
17658;SDS011;8948;51.534;8.262;2023-02-15T11:32:45;9.98;;;5.22;;
17658;SDS011;8948;51.534;8.262;2023-02-15T11:37:51;10.02;;;5.15;;
17658;SDS011;8948;51.534;8.262;2023-02-15T11:42:55;8.63;;;4.93;;
17658;SDS011;8948;51.534;8.262;2023-02-15T11:47:58;8.07;;;4.47;;
17658;SDS011;8948;51.534;8.262;2023-02-15T11:53:01;7.88;;;4.20;;
17658;SDS011;8948;51.534;8.262;2023-02-15T11:58:23;10.32;;;5.03;;
17658;SDS011;8948;51.534;8.262;2023-02-15T12:08:48;21.30;;;9.10;;
17658;SDS011;8948;51.534;8.262;2023-02-15T12:13:58;16.40;;;9.20;;
17658;SDS011;8948;51.534;8.262;2023-02-15T12:19:05;9.82;;;5.47;;
17658;SDS011;8948;51.534;8.262;2023-02-15T12:24:20;14.65;;;7.30;;
17658;SDS011;8948;51.534;8.262;2023-02-15T12:29:26;16.27;;;9.13;;
17658;SDS011;8948;51.534;8.262;2023-02-15T12:34:32;15.07;;;8.88;;
17658;SDS011;8948;51.534;8.262;2023-02-15T12:39:39;18.40;;;8.20;;
17658;SDS011;8948;51.534;8.262;2023-02-15T12:44:53;16.13;;;8.50;;
17658;SDS011;8948;51.534;8.262;2023-02-15T12:50:08;16.65;;;8.98;;
17658;SDS011;8948;51.534;8.262;2023-02-15T12:55:23;20.00;;;9.60;;
17658;SDS011;8948;51.534;8.262;2023-02-15T13:00:27;17.95;;;8.60;;
17658;SDS011;8948;51.534;8.262;2023-02-15T13:05:33;16.08;;;8.18;;
17658;SDS011;8948;51.534;8.262;2023-02-15T13:15:54;20.60;;;9.50;;
17658;SDS011;8948;51.534;8.262;2023-02-15T13:21:06;21.77;;;9.57;;
17658;SDS011;8948;51.534;8.262;2023-02-15T13:26:21;29.50;;;10.50;;
17658;SDS011;8948;51.534;8.262;2023-02-15T13:31:24;29.55;;;11.05;;
17658;SDS011;8948;51.534;8.262;2023-02-15T13:36:33;28.20;;;11.55;;
17658;SDS011;8948;51.534;8.262;2023-02-15T13:52:08;21.48;;;10.35;;
17658;SDS011;8948;51.534;8.262;2023-02-15T13:57:24;23.17;;;10.43;;
17658;SDS011;8948;51.534;8.262;2023-02-15T14:03:07;35.78;;;10.15;;
17658;SDS011;8948;51.534;8.262;2023-02-15T14:08:36;20.58;;;10.20;;
17658;SDS011;8948;51.534;8.262;2023-02-15T14:19:43;24.65;;;10.73;;
17658;SDS011;8948;51.534;8.262;2023-02-15T14:30:26;23.38;;;10.13;;
17658;SDS011;8948;51.534;8.262;2023-02-15T14:35:34;22.98;;;10.52;;
17658;SDS011;8948;51.534;8.262;2023-02-15T14:40:51;27.95;;;11.38;;
17658;SDS011;8948;51.534;8.262;2023-02-15T14:46:31;25.48;;;11.32;;
17658;SDS011;8948;51.534;8.262;2023-02-15T14:56:39;45.83;;;12.55;;
17658;SDS011;8948;51.534;8.262;2023-02-15T15:01:40;26.25;;;11.50;;
17658;SDS011;8948;51.534;8.262;2023-02-15T15:06:42;27.38;;;10.77;;
17658;SDS011;8948;51.534;8.262;2023-02-15T15:11:45;26.60;;;10.95;;
17658;SDS011;8948;51.534;8.262;2023-02-15T15:16:48;20.20;;;10.35;;
17658;SDS011;8948;51.534;8.262;2023-02-15T15:21:51;24.60;;;11.02;;
17658;SDS011;8948;51.534;8.262;2023-02-15T15:27:35;30.45;;;11.88;;
17658;SDS011;8948;51.534;8.262;2023-02-15T15:32:31;27.25;;;11.85;;
17658;SDS011;8948;51.534;8.262;2023-02-15T15:53:18;21.85;;;10.82;;
17658;SDS011;8948;51.534;8.262;2023-02-15T15:58:21;30.55;;;12.25;;
17658;SDS011;8948;51.534;8.262;2023-02-15T16:03:25;30.63;;;11.45;;
17658;SDS011;8948;51.534;8.262;2023-02-15T16:08:37;26.35;;;11.80;;
17658;SDS011;8948;51.534;8.262;2023-02-15T16:13:39;25.27;;;10.65;;
17658;SDS011;8948;51.534;8.262;2023-02-15T16:18:41;27.35;;;11.73;;
17658;SDS011;8948;51.534;8.262;2023-02-15T16:23:50;25.98;;;11.00;;
17658;SDS011;8948;51.534;8.262;2023-02-15T16:29:16;26.45;;;10.88;;
17658;SDS011;8948;51.534;8.262;2023-02-15T16:34:18;26.67;;;11.63;;
17658;SDS011;8948;51.534;8.262;2023-02-15T16:39:19;44.75;;;12.10;;
17658;SDS011;8948;51.534;8.262;2023-02-15T16:44:20;19.92;;;9.52;;
17658;SDS011;8948;51.534;8.262;2023-02-15T16:49:21;16.92;;;7.60;;
17658;SDS011;8948;51.534;8.262;2023-02-15T16:54:25;24.52;;;8.52;;
17658;SDS011;8948;51.534;8.262;2023-02-15T16:59:33;19.67;;;8.00;;
17658;SDS011;8948;51.534;8.262;2023-02-15T17:04:37;15.32;;;8.63;;
17658;SDS011;8948;51.534;8.262;2023-02-15T17:09:40;20.60;;;7.15;;
17658;SDS011;8948;51.534;8.262;2023-02-15T17:14:57;12.20;;;6.90;;
17658;SDS011;8948;51.534;8.262;2023-02-15T17:19:57;34.50;;;7.90;;
17658;SDS011;8948;51.534;8.262;2023-02-15T17:24:59;16.95;;;7.10;;
17658;SDS011;8948;51.534;8.262;2023-02-15T17:30:12;15.68;;;7.00;;
17658;SDS011;8948;51.534;8.262;2023-02-15T17:40:26;12.43;;;7.15;;
17658;SDS011;8948;51.534;8.262;2023-02-15T17:45:36;12.55;;;7.10;;
17658;SDS011;8948;51.534;8.262;2023-02-15T17:50:47;13.05;;;6.80;;
17658;SDS011;8948;51.534;8.262;2023-02-15T17:55:48;16.23;;;7.68;;
17658;SDS011;8948;51.534;8.262;2023-02-15T18:00:50;17.75;;;7.43;;
17658;SDS011;8948;51.534;8.262;2023-02-15T18:06:13;15.95;;;7.95;;
17658;SDS011;8948;51.534;8.262;2023-02-15T18:11:32;16.50;;;7.70;;
17658;SDS011;8948;51.534;8.262;2023-02-15T18:16:39;24.53;;;7.63;;
17658;SDS011;8948;51.534;8.262;2023-02-15T18:21:42;11.85;;;6.78;;
17658;SDS011;8948;51.534;8.262;2023-02-15T18:26:44;15.27;;;7.53;;
17658;SDS011;8948;51.534;8.262;2023-02-15T18:31:46;12.67;;;7.10;;
17658;SDS011;8948;51.534;8.262;2023-02-15T18:36:50;19.42;;;7.57;;
17658;SDS011;8948;51.534;8.262;2023-02-15T18:41:52;20.77;;;7.27;;
17658;SDS011;8948;51.534;8.262;2023-02-15T18:46:53;18.07;;;7.43;;
17658;SDS011;8948;51.534;8.262;2023-02-15T18:51:53;11.83;;;6.97;;
17658;SDS011;8948;51.534;8.262;2023-02-15T18:56:55;19.27;;;7.93;;
17658;SDS011;8948;51.534;8.262;2023-02-15T19:01:57;15.77;;;7.40;;
17658;SDS011;8948;51.534;8.262;2023-02-15T19:06:59;16.90;;;7.80;;
17658;SDS011;8948;51.534;8.262;2023-02-15T19:11:59;14.60;;;6.80;;
17658;SDS011;8948;51.534;8.262;2023-02-15T19:17:00;17.53;;;7.60;;
17658;SDS011;8948;51.534;8.262;2023-02-15T19:22:00;15.90;;;7.97;;
17658;SDS011;8948;51.534;8.262;2023-02-15T19:27:01;14.40;;;7.30;;
17658;SDS011;8948;51.534;8.262;2023-02-15T19:32:02;22.50;;;7.93;;
17658;SDS011;8948;51.534;8.262;2023-02-15T19:37:03;18.97;;;7.93;;
17658;SDS011;8948;51.534;8.262;2023-02-15T19:42:09;16.03;;;8.77;;
17658;SDS011;8948;51.534;8.262;2023-02-15T19:47:14;19.07;;;9.47;;
17658;SDS011;8948;51.534;8.262;2023-02-15T19:52:16;19.17;;;10.03;;
17658;SDS011;8948;51.534;8.262;2023-02-15T19:57:19;20.03;;;10.53;;
17658;SDS011;8948;51.534;8.262;2023-02-15T20:02:20;18.67;;;9.30;;
17658;SDS011;8948;51.534;8.262;2023-02-15T20:07:25;22.87;;;10.70;;
17658;SDS011;8948;51.534;8.262;2023-02-15T20:12:27;18.30;;;10.87;;
17658;SDS011;8948;51.534;8.262;2023-02-15T20:17:28;20.80;;;11.07;;
17658;SDS011;8948;51.534;8.262;2023-02-15T20:22:28;22.83;;;10.90;;
17658;SDS011;8948;51.534;8.262;2023-02-15T20:27:29;23.77;;;11.80;;
17658;SDS011;8948;51.534;8.262;2023-02-15T20:32:30;27.60;;;12.67;;
17658;SDS011;8948;51.534;8.262;2023-02-15T20:37:30;26.40;;;11.77;;
17658;SDS011;8948;51.534;8.262;2023-02-15T20:42:31;21.37;;;12.40;;
17658;SDS011;8948;51.534;8.262;2023-02-15T20:47:31;25.10;;;12.37;;
17658;SDS011;8948;51.534;8.262;2023-02-15T20:52:32;26.90;;;12.17;;
17658;SDS011;8948;51.534;8.262;2023-02-15T20:57:32;25.50;;;12.33;;
17658;SDS011;8948;51.534;8.262;2023-02-15T21:02:33;26.07;;;13.80;;
17658;SDS011;8948;51.534;8.262;2023-02-15T21:07:33;25.73;;;13.87;;
17658;SDS011;8948;51.534;8.262;2023-02-15T21:12:34;35.93;;;13.07;;
17658;SDS011;8948;51.534;8.262;2023-02-15T21:17:34;25.00;;;12.57;;
17658;SDS011;8948;51.534;8.262;2023-02-15T21:22:35;26.17;;;13.87;;
17658;SDS011;8948;51.534;8.262;2023-02-15T21:27:36;24.03;;;12.93;;
17658;SDS011;8948;51.534;8.262;2023-02-15T21:32:36;22.80;;;12.50;;
17658;SDS011;8948;51.534;8.262;2023-02-15T21:37:37;24.83;;;12.83;;
17658;SDS011;8948;51.534;8.262;2023-02-15T21:42:39;26.10;;;13.20;;
17658;SDS011;8948;51.534;8.262;2023-02-15T21:47:58;27.03;;;13.00;;
17658;SDS011;8948;51.534;8.262;2023-02-15T21:52:59;28.93;;;14.47;;
17658;SDS011;8948;51.534;8.262;2023-02-15T21:58:01;28.20;;;14.97;;
17658;SDS011;8948;51.534;8.262;2023-02-15T22:03:02;28.17;;;14.80;;
17658;SDS011;8948;51.534;8.262;2023-02-15T22:08:08;29.73;;;15.23;;
17658;SDS011;8948;51.534;8.262;2023-02-15T22:13:13;32.23;;;15.37;;
17658;SDS011;8948;51.534;8.262;2023-02-15T22:18:20;28.20;;;14.50;;
17658;SDS011;8948;51.534;8.262;2023-02-15T22:23:27;27.70;;;15.57;;
17658;SDS011;8948;51.534;8.262;2023-02-15T22:28:32;31.07;;;16.17;;
17658;SDS011;8948;51.534;8.262;2023-02-15T22:33:34;34.07;;;14.37;;
17658;SDS011;8948;51.534;8.262;2023-02-15T22:38:35;28.00;;;15.47;;
17658;SDS011;8948;51.534;8.262;2023-02-15T22:43:36;30.80;;;15.53;;
17658;SDS011;8948;51.534;8.262;2023-02-15T22:48:39;32.23;;;15.47;;
17658;SDS011;8948;51.534;8.262;2023-02-15T22:53:41;33.27;;;16.00;;
17658;SDS011;8948;51.534;8.262;2023-02-15T22:58:41;29.27;;;16.00;;
17658;SDS011;8948;51.534;8.262;2023-02-15T23:03:42;37.23;;;16.67;;
17658;SDS011;8948;51.534;8.262;2023-02-15T23:08:43;33.90;;;17.53;;
17658;SDS011;8948;51.534;8.262;2023-02-15T23:13:44;30.40;;;15.97;;
17658;SDS011;8948;51.534;8.262;2023-02-15T23:18:47;31.90;;;17.50;;
17658;SDS011;8948;51.534;8.262;2023-02-15T23:23:49;39.93;;;17.53;;
17658;SDS011;8948;51.534;8.262;2023-02-15T23:28:52;37.47;;;17.97;;
17658;SDS011;8948;51.534;8.262;2023-02-15T23:33:54;34.20;;;17.67;;
17658;SDS011;8948;51.534;8.262;2023-02-15T23:38:56;32.07;;;17.73;;
17658;SDS011;8948;51.534;8.262;2023-02-15T23:43:59;34.53;;;17.40;;
17658;SDS011;8948;51.534;8.262;2023-02-15T23:49:02;38.73;;;18.23;;
17658;SDS011;8948;51.534;8.262;2023-02-15T23:54:14;41.40;;;18.83;;
17658;SDS011;8948;51.534;8.262;2023-02-15T23:59:25;37.33;;;18.27;;
